Time;durP1;ratioP1;P1;durP2;ratioP2;P2;SDS_P1;SDS_P2;PMS_P1;PMS_P2;Temp;Humidity;BMP_temperature;BMP_pressure;BME280_temperature;BME280_humidity;BME280_pressure;Samples;Min_cycle;Max_cycle;Signal;HPM_P1;HPM_P2
2023/09/17 00:00:57;;;;;;;1.00;0.90;;;;;;;19.20;100.00;98101.66;5151235;27;20034;-70
2023/09/17 00:03:23;;;;;;;2.30;1.08;;;;;;;19.15;100.00;98095.78;5151696;27;20022;-70
2023/09/17 00:05:48;;;;;;;2.97;1.85;;;;;;;19.09;100.00;98090.91;5154767;27;20026;-70
2023/09/17 00:08:14;;;;;;;4.03;1.55;;;;;;;19.11;100.00;98088.03;5154667;27;20346;-70
2023/09/17 00:10:43;;;;;;;3.17;1.45;;;;;;;19.09;100.00;98095.47;5155187;27;20071;-70
2023/09/17 00:13:08;;;;;;;1.63;1.38;;;;;;;19.12;100.00;98089.78;5154965;27;20022;-70
2023/09/17 00:15:34;;;;;;;2.58;1.35;;;;;;;18.98;100.00;98085.53;5151275;27;20046;-71
2023/09/17 00:17:59;;;;;;;3.17;1.90;;;;;;;18.99;100.00;98091.81;5135060;27;20054;-70
2023/09/17 00:20:25;;;;;;;3.17;1.77;;;;;;;18.93;100.00;98080.53;5153179;27;20038;-70
2023/09/17 00:22:50;;;;;;;3.60;1.48;;;;;;;18.91;100.00;98082.53;5140643;27;20062;-71
2023/09/17 00:25:16;;;;;;;2.17;1.83;;;;;;;18.85;100.00;98074.06;5133775;27;20031;-71
2023/09/17 00:27:41;;;;;;;2.15;1.85;;;;;;;18.86;100.00;98073.91;5135432;27;20050;-71
2023/09/17 00:30:09;;;;;;;1.90;1.42;;;;;;;18.83;100.00;98073.31;5150340;27;20057;-71
2023/09/17 00:32:34;;;;;;;2.78;2.03;;;;;;;18.78;100.00;98065.59;5154370;27;20031;-71
2023/09/17 00:35:00;;;;;;;2.88;1.33;;;;;;;18.81;100.00;98075.31;5156036;27;20434;-71
2023/09/17 00:37:25;;;;;;;4.80;1.95;;;;;;;18.80;100.00;98074.44;5154139;27;20057;-71
2023/09/17 00:39:51;;;;;;;2.70;1.05;;;;;;;18.80;100.00;98068.16;5154401;27;20366;-71
2023/09/17 00:42:16;;;;;;;5.82;1.83;;;;;;;18.82;100.00;98069.78;5155448;27;20022;-71
2023/09/17 00:44:42;;;;;;;2.10;1.88;;;;;;;18.87;100.00;98066.66;5155596;27;20026;-71
2023/09/17 00:47:08;;;;;;;1.70;1.23;;;;;;;18.88;100.00;98065.66;5155426;27;20049;-71
2023/09/17 00:49:34;;;;;;;1.80;1.17;;;;;;;18.91;100.00;98055.41;5136714;27;20122;-71
2023/09/17 00:52:01;;;;;;;10.27;2.92;;;;;;;18.87;100.00;98045.81;5155544;27;20019;-71
2023/09/17 00:54:28;;;;;;;3.38;1.60;;;;;;;18.85;100.00;98055.97;5136740;27;20109;-70
2023/09/17 00:56:54;;;;;;;2.03;1.00;;;;;;;18.83;100.00;98062.47;5137060;27;20022;-71
2023/09/17 00:59:20;;;;;;;3.70;2.70;;;;;;;18.89;100.00;98054.66;5153889;27;20033;-71
2023/09/17 01:01:45;;;;;;;2.35;1.55;;;;;;;18.91;100.00;98058.13;5155200;27;20015;-70
2023/09/17 01:04:12;;;;;;;3.63;2.05;;;;;;;18.85;100.00;98053.25;5153855;27;20061;-71
2023/09/17 01:06:40;;;;;;;2.58;1.25;;;;;;;18.85;100.00;98047.81;5154921;27;20026;-70
2023/09/17 01:09:09;;;;;;;4.35;2.15;;;;;;;18.87;100.00;98043.13;5153829;27;20060;-70
2023/09/17 01:11:35;;;;;;;5.13;1.50;;;;;;;18.81;100.00;98042.78;5153746;27;20065;-70
2023/09/17 01:14:15;;;;;;;3.55;1.05;;;;;;;18.81;100.00;98040.94;5153870;27;20057;-71
2023/09/17 01:16:42;;;;;;;2.33;1.73;;;;;;;18.85;100.00;98036.97;5152386;27;20066;-71
2023/09/17 01:19:16;;;;;;;6.30;1.48;;;;;;;18.84;100.00;98032.53;5153715;27;20051;-71
2023/09/17 01:21:48;;;;;;;6.55;1.65;;;;;;;18.83;100.00;98030.81;5154611;27;20031;-71
2023/09/17 01:24:28;;;;;;;0.85;0.85;;;;;;;18.88;100.00;98044.84;5153737;27;20385;-71
2023/09/17 01:27:03;;;;;;;1.75;1.45;;;;;;;18.88;100.00;98027.72;5153335;27;20022;-72
2023/09/17 01:29:37;;;;;;;1.25;1.15;;;;;;;18.78;100.00;98033.06;5153754;27;20041;-72
2023/09/17 01:32:04;;;;;;;2.80;1.52;;;;;;;18.75;100.00;98025.22;5154847;27;20474;-70
2023/09/17 01:34:31;;;;;;;1.38;1.02;;;;;;;18.68;100.00;98021.31;5154414;27;20014;-70
2023/09/17 01:36:58;;;;;;;2.38;1.55;;;;;;;18.57;100.00;98025.94;5153283;27;20380;-70
2023/09/17 01:39:27;;;;;;;3.70;1.67;;;;;;;18.59;100.00;98016.69;5145256;27;20483;-70
2023/09/17 01:41:52;;;;;;;0.95;0.95;;;;;;;18.63;100.00;98031.69;5132308;27;20486;-70
2023/09/17 01:44:18;;;;;;;1.85;1.50;;;;;;;18.64;100.00;98024.44;5148179;27;20072;-70
2023/09/17 01:46:44;;;;;;;3.60;1.63;;;;;;;18.59;100.00;98015.81;5135610;27;20056;-70
2023/09/17 01:49:11;;;;;;;1.20;0.85;;;;;;;18.61;100.00;98022.81;5153047;27;20079;-70
2023/09/17 01:51:40;;;;;;;1.17;0.80;;;;;;;18.62;100.00;98021.84;5153115;27;20046;-69
2023/09/17 01:54:06;;;;;;;1.20;1.10;;;;;;;18.60;100.00;98028.41;5153974;27;20019;-71
2023/09/17 01:56:37;;;;;;;2.40;1.25;;;;;;;18.65;100.00;98028.84;5152848;27;20033;-71
2023/09/17 01:59:04;;;;;;;2.83;1.38;;;;;;;18.60;100.00;98031.97;5153867;27;20037;-72
2023/09/17 02:01:30;;;;;;;1.35;0.93;;;;;;;18.56;100.00;98021.50;5152859;27;20030;-70
2023/09/17 02:03:57;;;;;;;3.92;1.33;;;;;;;18.59;100.00;98022.13;5152353;27;20022;-70
2023/09/17 02:06:23;;;;;;;1.20;1.02;;;;;;;18.58;100.00;98014.97;5152634;27;20022;-70
2023/09/17 02:08:48;;;;;;;8.40;1.58;;;;;;;18.55;100.00;98025.25;5153613;27;20404;-70
2023/09/17 02:11:14;;;;;;;1.27;1.17;;;;;;;18.57;100.00;98021.41;5153786;27;20038;-70
2023/09/17 02:13:39;;;;;;;2.45;1.42;;;;;;;18.60;100.00;98022.97;5152601;27;20517;-70
2023/09/17 02:16:05;;;;;;;3.13;1.55;;;;;;;18.57;100.00;98034.94;5153338;27;20516;-71
2023/09/17 02:18:31;;;;;;;1.38;1.25;;;;;;;18.57;100.00;98032.22;5152431;27;20039;-70
2023/09/17 02:20:56;;;;;;;2.17;1.52;;;;;;;18.57;100.00;98034.94;5152058;27;20508;-70
2023/09/17 02:23:22;;;;;;;1.30;0.85;;;;;;;18.61;100.00;98024.72;5152154;27;20508;-70
2023/09/17 02:25:47;;;;;;;1.40;1.30;;;;;;;18.58;100.00;98031.22;5153435;27;20027;-71
2023/09/17 02:28:13;;;;;;;1.77;1.02;;;;;;;18.55;100.00;98028.78;5151988;27;20113;-71
2023/09/17 02:30:38;;;;;;;1.63;1.10;;;;;;;18.52;100.00;98033.63;5152367;27;20427;-71
2023/09/17 02:33:05;;;;;;;3.85;1.73;;;;;;;18.48;100.00;98035.72;5152078;27;20075;-71
2023/09/17 02:35:30;;;;;;;2.58;1.17;;;;;;;18.48;100.00;98024.88;5152086;27;20067;-71
2023/09/17 02:37:55;;;;;;;1.90;1.23;;;;;;;18.49;100.00;98023.03;5134389;27;20439;-71
2023/09/17 02:40:23;;;;;;;9.23;3.33;;;;;;;18.49;100.00;98028.44;5152164;27;20029;-71
2023/09/17 02:42:48;;;;;;;2.25;1.73;;;;;;;18.47;100.00;98017.72;5151824;27;20021;-71
2023/09/17 02:45:14;;;;;;;4.40;2.50;;;;;;;18.47;100.00;98025.84;5151716;27;20036;-71
2023/09/17 02:47:43;;;;;;;1.85;1.45;;;;;;;18.50;100.00;98020.19;5153300;27;20115;-71
2023/09/17 02:50:09;;;;;;;2.17;1.02;;;;;;;18.54;100.00;98024.38;5152935;27;20054;-71
2023/09/17 02:52:35;;;;;;;1.35;1.05;;;;;;;18.53;100.00;98017.22;5151806;27;20031;-72
2023/09/17 02:55:02;;;;;;;1.88;1.30;;;;;;;18.56;100.00;98021.50;5151390;27;20026;-71
2023/09/17 02:57:28;;;;;;;1.25;1.08;;;;;;;18.62;100.00;98016.44;5152951;27;20054;-70
2023/09/17 02:59:54;;;;;;;3.30;2.38;;;;;;;18.61;100.00;98016.56;5134381;27;20120;-70
2023/09/17 03:02:19;;;;;;;1.92;1.10;;;;;;;18.61;100.00;98019.28;5151307;27;20489;-71
2023/09/17 03:04:45;;;;;;;1.08;1.00;;;;;;;18.56;100.00;98016.97;5151255;27;20026;-71
2023/09/17 03:07:11;;;;;;;1.80;1.42;;;;;;;18.62;100.00;98016.44;5152555;27;20397;-71
2023/09/17 03:09:38;;;;;;;1.17;1.05;;;;;;;18.61;100.00;98019.28;5152768;27;20037;-71
2023/09/17 03:12:04;;;;;;;2.80;1.30;;;;;;;18.54;100.00;98007.25;5151273;27;20037;-71
2023/09/17 03:14:30;;;;;;;1.92;1.38;;;;;;;18.54;100.00;98013.53;5151336;27;20389;-71
2023/09/17 03:16:55;;;;;;;1.30;1.17;;;;;;;18.56;100.00;98008.81;5152379;27;20039;-71
2023/09/17 03:19:21;;;;;;;2.80;1.48;;;;;;;18.53;100.00;98013.66;5150938;27;20029;-71
2023/09/17 03:21:46;;;;;;;2.78;1.95;;;;;;;18.46;100.00;98021.41;5152612;27;20496;-71
2023/09/17 03:24:15;;;;;;;1.48;1.38;;;;;;;18.45;100.00;98013.44;5150978;27;20117;-72
2023/09/17 03:26:41;;;;;;;0.80;0.77;;;;;;;18.44;100.00;98015.28;5152402;27;20027;-71
2023/09/17 03:29:07;;;;;;;2.28;1.30;;;;;;;18.41;100.00;98004.69;5133763;27;20027;-70
2023/09/17 03:31:34;;;;;;;2.92;1.50;;;;;;;18.42;100.00;97996.47;5151433;27;20032;-70
2023/09/17 03:33:59;;;;;;;2.25;1.40;;;;;;;18.49;100.00;97994.09;5152355;27;20023;-71
2023/09/17 03:36:25;;;;;;;1.77;1.48;;;;;;;18.51;100.00;98000.25;5151007;27;20022;-70
2023/09/17 03:38:50;;;;;;;0.95;0.95;;;;;;;18.51;100.00;97997.53;5151650;27;20076;-71
2023/09/17 03:41:16;;;;;;;1.38;1.27;;;;;;;18.50;100.00;98001.22;5152196;27;20054;-71
2023/09/17 03:43:41;;;;;;;0.80;0.80;;;;;;;18.56;100.00;98016.09;5133649;27;20456;-71
2023/09/17 03:46:07;;;;;;;2.72;1.95;;;;;;;18.46;100.00;98021.41;5152177;27;20448;-71
2023/09/17 03:48:33;;;;;;;1.17;1.08;;;;;;;18.41;100.00;98019.13;5150687;27;20031;-70
2023/09/17 03:51:01;;;;;;;1.13;1.02;;;;;;;18.42;100.00;98022.69;5130812;27;20114;-70
2023/09/17 03:53:28;;;;;;;1.13;0.65;;;;;;;18.42;100.00;98020.84;5150283;27;20885;-70
2023/09/17 03:55:53;;;;;;;4.50;2.42;;;;;;;18.42;100.00;98019.97;5150801;27;20483;-70
2023/09/17 03:58:21;;;;;;;0.95;0.95;;;;;;;18.34;100.00;98023.34;5152020;27;20030;-71
2023/09/17 04:00:47;;;;;;;2.92;2.05;;;;;;;18.33;100.00;98024.31;5133744;27;20034;-72
2023/09/17 04:03:17;;;;;;;13.65;1.90;;;;;;;18.35;100.00;98026.91;5133634;27;20389;-71
2023/09/17 04:05:43;;;;;;;1.05;0.98;;;;;;;18.37;100.00;98033.03;5152005;27;20088;-70
2023/09/17 04:08:08;;;;;;;4.85;1.52;;;;;;;18.38;100.00;98029.34;5152146;27;20502;-71
2023/09/17 04:10:34;;;;;;;7.85;3.22;;;;;;;18.45;100.00;98029.69;5150733;27;20019;-70
2023/09/17 04:13:00;;;;;;;1.85;1.10;;;;;;;18.47;100.00;98033.97;5152122;27;20030;-71
2023/09/17 04:15:25;;;;;;;1.45;1.17;;;;;;;18.49;100.00;98026.59;5151880;27;20022;-71
2023/09/17 04:17:51;;;;;;;2.60;1.73;;;;;;;18.46;100.00;98021.41;5133121;27;20070;-71
2023/09/17 04:20:18;;;;;;;2.83;1.48;;;;;;;18.56;100.00;98027.78;5133234;27;20038;-70
2023/09/17 04:22:48;;;;;;;1.38;1.02;;;;;;;18.60;100.00;98034.69;5143252;27;20041;-71
2023/09/17 04:25:15;;;;;;;1.85;1.40;;;;;;;18.61;100.00;98035.53;5147010;27;20101;-70
2023/09/17 04:27:44;;;;;;;3.60;1.17;;;;;;;18.55;100.00;98026.06;5146914;27;20027;-70
2023/09/17 04:30:12;;;;;;;1.50;1.23;;;;;;;18.62;100.00;98031.81;5129992;27;20039;-71
2023/09/17 04:32:41;;;;;;;2.40;1.45;;;;;;;18.66;100.00;98028.72;5130819;27;20500;-71
2023/09/17 04:35:12;;;;;;;1.73;1.33;;;;;;;18.68;100.00;98036.72;5112761;27;20080;-70
2023/09/17 04:37:39;;;;;;;3.85;2.10;;;;;;;18.73;100.00;98029.91;5131027;27;20407;-71
2023/09/17 04:40:08;;;;;;;2.00;1.73;;;;;;;18.78;100.00;98030.38;5149609;27;20383;-72
2023/09/17 04:42:36;;;;;;;1.40;1.30;;;;;;;18.77;100.00;98030.47;5150391;27;20117;-71
2023/09/17 04:45:04;;;;;;;4.03;2.00;;;;;;;18.83;100.00;98029.94;5150287;27;20031;-71
2023/09/17 04:47:31;;;;;;;1.50;1.33;;;;;;;18.88;100.00;98031.28;5150315;27;20109;-71
2023/09/17 04:49:56;;;;;;;10.95;3.47;;;;;;;18.93;100.00;98036.28;5148483;27;20027;-71
2023/09/17 04:52:22;;;;;;;3.40;2.08;;;;;;;18.90;100.00;98037.41;5153928;27;20026;-71
2023/09/17 04:54:47;;;;;;;6.43;1.90;;;;;;;18.83;100.00;98036.22;5136715;27;20393;-71
2023/09/17 04:57:13;;;;;;;1.65;1.17;;;;;;;18.87;100.00;98043.13;5153993;27;20031;-71
2023/09/17 04:59:38;;;;;;;3.88;1.77;;;;;;;18.92;100.00;98046.28;5153600;27;20027;-71
2023/09/17 05:02:03;;;;;;;2.95;2.47;;;;;;;18.99;100.00;98045.72;5153714;27;20054;-71
2023/09/17 05:04:29;;;;;;;2.22;1.58;;;;;;;19.05;100.00;98054.19;5153479;27;20035;-71
2023/09/17 05:06:54;;;;;;;6.75;4.47;;;;;;;19.09;100.00;98046.66;5144776;27;20023;-71
2023/09/17 05:09:20;;;;;;;2.35;1.95;;;;;;;19.18;100.00;98043.97;5134137;27;20050;-71
2023/09/17 05:11:46;;;;;;;4.80;2.63;;;;;;;19.21;100.00;98037.41;5135752;27;20113;-71
2023/09/17 05:14:11;;;;;;;2.33;1.33;;;;;;;19.29;100.00;98041.16;5136115;27;20030;-71
2023/09/17 05:16:40;;;;;;;2.58;2.03;;;;;;;19.43;100.00;98034.53;5136213;27;20191;-71
2023/09/17 05:19:05;;;;;;;3.63;1.42;;;;;;;19.55;100.00;98029.84;5153308;27;20390;-71
2023/09/17 05:21:31;;;;;;;10.32;3.63;;;;;;;19.69;100.00;98030.31;5153678;27;20052;-70
2023/09/17 05:23:56;;;;;;;14.57;3.45;;;;;;;19.76;100.00;98012.47;5154503;27;20113;-71
2023/09/17 05:26:22;;;;;;;3.28;0.88;;;;;;;19.86;100.00;98020.63;5145579;27;20027;-71
2023/09/17 05:28:48;;;;;;;1.85;1.48;;;;;;;19.85;100.00;98011.63;5133676;27;20066;-71
2023/09/17 05:31:14;;;;;;;8.95;1.92;;;;;;;19.81;100.00;98018.31;5133787;27;20497;-71
2023/09/17 05:33:39;;;;;;;2.35;1.42;;;;;;;19.81;100.00;98023.75;5151153;27;20027;-71
2023/09/17 05:36:05;;;;;;;2.05;1.55;;;;;;;19.82;100.00;98020.06;5153995;27;20019;-73
2023/09/17 05:38:30;;;;;;;5.78;2.20;;;;;;;19.82;100.00;98011.03;5141313;27;20376;-72
2023/09/17 05:40:56;;;;;;;5.93;2.03;;;;;;;19.87;100.00;98023.19;5133771;27;20027;-71
2023/09/17 05:43:24;;;;;;;2.45;1.65;;;;;;;19.89;100.00;98018.50;5142744;27;20019;-71
2023/09/17 05:45:56;;;;;;;2.17;1.10;;;;;;;19.92;100.00;98017.34;5149042;27;20037;-71
2023/09/17 05:48:22;;;;;;;7.32;3.30;;;;;;;19.89;100.00;98010.34;5150128;27;20030;-71
2023/09/17 05:50:49;;;;;;;1.88;1.60;;;;;;;19.82;100.00;98009.19;5149984;27;20063;-71
2023/09/17 05:53:15;;;;;;;3.53;3.13;;;;;;;19.87;100.00;98008.78;5127260;27;20023;-80
2023/09/17 05:55:40;;;;;;;3.67;1.90;;;;;;;19.99;100.00;98000.34;5129750;27;20030;-80
2023/09/17 05:58:06;;;;;;;4.72;2.35;;;;;;;20.08;100.00;98001.34;5151124;27;20034;-72
2023/09/17 06:00:31;;;;;;;5.18;2.85;;;;;;;20.11;100.00;97989.34;5149924;27;20567;-82
2023/09/17 06:02:57;;;;;;;2.95;1.27;;;;;;;20.32;100.00;97995.50;5149240;27;20458;-80
2023/09/17 06:05:22;;;;;;;2.22;1.95;;;;;;;20.39;100.00;97994.81;5121704;27;20026;-72
2023/09/17 06:07:48;;;;;;;1.70;1.02;;;;;;;20.53;100.00;98001.63;5147429;27;20030;-72
2023/09/17 06:10:13;;;;;;;0.80;0.80;;;;;;;20.60;100.00;97999.19;5149410;27;20030;-72
2023/09/17 06:12:39;;;;;;;2.60;1.45;;;;;;;20.70;100.00;98000.03;5149693;27;20505;-73
2023/09/17 06:15:05;;;;;;;1.95;1.48;;;;;;;20.77;100.00;98001.13;5128840;27;20401;-72
2023/09/17 06:17:30;;;;;;;7.35;4.35;;;;;;;20.84;100.00;98005.84;5129840;27;20051;-73
2023/09/17 06:19:56;;;;;;;2.78;1.17;;;;;;;20.93;100.00;97999.53;5146055;27;20107;-74
2023/09/17 06:22:21;;;;;;;1.42;1.30;;;;;;;20.98;100.00;98005.38;5150581;27;20019;-73
2023/09/17 06:24:47;;;;;;;1.35;1.00;;;;;;;21.19;100.00;98001.63;5150415;27;20023;-74
2023/09/17 06:27:14;;;;;;;7.05;2.03;;;;;;;21.26;100.00;98003.56;5150095;27;20050;-73
2023/09/17 06:29:40;;;;;;;0.25;0.25;;;;;;;21.29;100.00;98002.41;5150935;27;20401;-74
2023/09/17 06:32:05;;;;;;;0.70;0.70;;;;;;;21.36;100.00;98015.28;5148902;27;20035;-73
2023/09/17 06:34:31;;;;;;;0.80;0.80;;;;;;;21.37;100.00;98003.41;5150381;27;20041;-73
2023/09/17 06:36:56;;;;;;;2.55;1.33;;;;;;;21.46;100.00;98020.69;5149124;27;20038;-73
2023/09/17 06:39:22;;;;;;;1.73;1.15;;;;;;;21.54;100.00;98018.91;5127478;27;20146;-73
2023/09/17 06:41:48;;;;;;;2.72;1.70;;;;;;;21.71;100.00;98006.34;5129559;27;20027;-73
2023/09/17 06:44:13;;;;;;;6.45;0.93;;;;;;;22.00;100.00;98007.03;5139410;27;20024;-73
2023/09/17 06:46:39;;;;;;;3.25;1.58;;;;;;;22.20;100.00;98009.59;5129598;27;20058;-73
2023/09/17 06:49:05;;;;;;;3.55;1.50;;;;;;;22.22;100.00;97997.53;5147366;27;20027;-73
2023/09/17 06:51:30;;;;;;;2.00;1.15;;;;;;;22.33;100.00;97993.72;5150026;27;20083;-73
2023/09/17 06:53:56;;;;;;;2.60;1.40;;;;;;;22.44;100.00;97998.91;5149903;27;20479;-73
2023/09/17 06:56:24;;;;;;;2.42;1.80;;;;;;;22.68;100.00;97999.13;5148358;27;20037;-73
2023/09/17 06:58:50;;;;;;;3.40;1.45;;;;;;;22.91;100.00;97994.88;5148787;27;20347;-73
2023/09/17 07:01:15;;;;;;;1.35;1.13;;;;;;;22.88;100.00;97973.38;5148599;27;20078;-74
2023/09/17 07:03:40;;;;;;;1.70;1.50;;;;;;;23.06;100.00;97981.47;5143071;27;20023;-73
2023/09/17 07:06:06;;;;;;;1.52;1.15;;;;;;;23.30;100.00;97991.66;5146566;27;20087;-72
2023/09/17 07:08:32;;;;;;;1.70;1.27;;;;;;;23.30;100.00;97984.31;5149370;27;20022;-72
2023/09/17 07:10:57;;;;;;;1.20;0.85;;;;;;;23.57;100.00;97983.25;5149395;27;20477;-73
2023/09/17 07:13:23;;;;;;;0.73;0.73;;;;;;;23.65;100.00;97988.78;5147800;27;20038;-73
2023/09/17 07:15:48;;;;;;;0.60;0.60;;;;;;;23.67;100.00;97987.56;5149300;27;20022;-73
2023/09/17 07:18:14;;;;;;;1.25;0.85;;;;;;;23.81;100.00;97987.97;5138605;27;20042;-72
2023/09/17 07:20:40;;;;;;;2.05;1.10;;;;;;;24.23;100.00;97984.16;5127692;27;20034;-72
2023/09/17 07:23:07;;;;;;;1.00;0.82;;;;;;;24.80;100.00;97982.22;5128992;27;20430;-72
2023/09/17 07:25:33;;;;;;;0.60;0.60;;;;;;;25.01;100.00;97981.69;5147841;27;20454;-73
2023/09/17 07:28:04;;;;;;;0.88;0.73;;;;;;;25.30;100.00;97978.38;5131076;27;20046;-73
2023/09/17 07:30:34;;;;;;;0.93;0.85;;;;;;;25.69;100.00;97984.75;5149512;27;20029;-72
2023/09/17 07:33:00;;;;;;;0.30;0.30;;;;;;;26.07;100.00;97977.50;5148287;27;20565;-72
2023/09/17 07:35:26;;;;;;;2.10;1.10;;;;;;;26.22;100.00;97989.41;5147983;27;20105;-72
2023/09/17 07:37:51;;;;;;;1.27;0.80;;;;;;;26.34;100.00;97984.34;5147978;27;20406;-72
2023/09/17 07:40:17;;;;;;;3.42;1.15;;;;;;;26.59;100.00;97982.25;5147887;27;20042;-73
2023/09/17 07:42:42;;;;;;;0.90;0.73;;;;;;;27.21;100.00;97988.38;5148250;27;20026;-73
2023/09/17 07:45:08;;;;;;;1.65;1.55;;;;;;;27.25;100.00;97985.09;5147945;27;20067;-72
2023/09/17 07:47:34;;;;;;;5.78;4.07;;;;;;;27.59;100.00;97986.44;5147967;27;20027;-72
2023/09/17 07:49:59;;;;;;;12.45;9.77;;;;;;;28.26;100.00;97962.28;5149324;27;20381;-73
2023/09/17 07:52:25;;;;;;;13.63;8.27;;;;;;;28.49;96.49;97960.16;5147413;27;20027;-72
2023/09/17 07:54:50;;;;;;;11.70;7.57;;;;;;;28.47;91.72;97954.88;5149025;27;20091;-72
2023/09/17 07:57:16;;;;;;;10.32;7.03;;;;;;;28.30;96.65;97958.94;5148879;27;20145;-73
2023/09/17 07:59:41;;;;;;;19.52;11.40;;;;;;;28.77;100.00;97976.75;5147783;27;20030;-73
2023/09/17 08:02:07;;;;;;;19.60;11.10;;;;;;;28.89;100.00;97981.53;5147986;27;20102;-72
2023/09/17 08:04:33;;;;;;;16.73;9.90;;;;;;;29.30;98.28;97973.38;5147789;27;20117;-73
2023/09/17 08:06:59;;;;;;;13.82;9.73;;;;;;;29.55;99.86;97970.97;5147750;27;20102;-73
2023/09/17 08:09:25;;;;;;;17.52;9.80;;;;;;;29.86;98.13;97967.75;5149083;27;20031;-73
2023/09/17 08:11:51;;;;;;;16.52;9.20;;;;;;;30.59;90.61;97970.53;5148026;27;20086;-73
2023/09/17 08:14:17;;;;;;;13.38;8.70;;;;;;;31.66;80.47;97965.56;5148020;27;20019;-73
2023/09/17 08:16:43;;;;;;;13.68;9.38;;;;;;;32.01;73.50;97954.97;5147953;27;20387;-72
2023/09/17 08:19:08;;;;;;;22.08;11.55;;;;;;;32.17;74.60;97951.75;5147670;27;20041;-73
2023/09/17 08:21:34;;;;;;;11.68;8.52;;;;;;;32.62;68.41;97957.22;5147494;27;20022;-73
2023/09/17 08:24:00;;;;;;;11.55;8.35;;;;;;;32.27;65.18;97944.88;5148977;27;20038;-73
2023/09/17 08:26:29;;;;;;;12.50;9.02;;;;;;;32.57;68.78;97959.81;5149759;27;20031;-73
2023/09/17 08:29:00;;;;;;;10.75;7.10;;;;;;;33.17;61.09;97938.84;5149153;27;20571;-73
2023/09/17 08:31:26;;;;;;;10.38;7.40;;;;;;;33.81;54.60;97932.81;5152970;27;20114;-73
2023/09/17 08:33:52;;;;;;;9.70;6.70;;;;;;;34.01;50.34;97925.06;5151705;27;20069;-73
2023/09/17 08:36:21;;;;;;;7.88;6.20;;;;;;;34.27;47.56;97923.91;5151632;27;20061;-73
2023/09/17 08:38:49;;;;;;;14.57;8.38;;;;;;;34.66;48.93;97930.78;5151540;27;20841;-73
2023/09/17 08:41:16;;;;;;;8.52;6.80;;;;;;;35.59;43.56;97919.75;5151668;27;20066;-73
2023/09/17 08:43:42;;;;;;;12.88;6.82;;;;;;;36.28;40.68;97904.75;5152627;27;20026;-73
2023/09/17 08:46:08;;;;;;;14.35;6.68;;;;;;;36.52;41.57;97913.84;5151423;27;20445;-72
2023/09/17 08:48:33;;;;;;;10.98;5.80;;;;;;;35.79;41.24;97907.09;5152521;27;20027;-73
2023/09/17 08:50:59;;;;;;;11.23;6.00;;;;;;;35.54;40.64;97903.72;5151168;27;20069;-72
2023/09/17 08:53:28;;;;;;;14.88;6.85;;;;;;;34.83;44.08;97915.09;5151492;27;20488;-72
2023/09/17 08:55:57;;;;;;;7.80;5.95;;;;;;;34.78;43.35;97909.41;5150992;27;20014;-73
2023/09/17 08:58:26;;;;;;;11.75;5.88;;;;;;;34.68;43.86;97900.81;5151389;27;20034;-73
2023/09/17 09:00:54;;;;;;;11.98;5.72;;;;;;;35.21;41.78;97898.81;5150955;27;20475;-73
2023/09/17 09:03:22;;;;;;;10.48;5.65;;;;;;;34.19;42.41;97894.50;5150926;27;20474;-74
2023/09/17 09:05:49;;;;;;;9.70;6.00;;;;;;;34.21;43.91;97902.59;5150851;27;20113;-72
2023/09/17 09:08:16;;;;;;;8.68;5.93;;;;;;;34.20;44.23;97901.75;5133823;27;20448;-73
2023/09/17 09:10:41;;;;;;;7.85;6.25;;;;;;;33.33;44.75;97910.50;5137772;27;20513;-72
2023/09/17 09:13:08;;;;;;;14.45;6.97;;;;;;;32.95;48.23;97913.44;5127506;27;20059;-72
2023/09/17 09:15:33;;;;;;;8.15;6.38;;;;;;;32.90;46.28;97909.66;5130250;27;20023;-73
2023/09/17 09:17:59;;;;;;;10.27;6.20;;;;;;;33.40;46.64;97899.34;5150471;27;20038;-73
2023/09/17 09:20:24;;;;;;;8.50;6.63;;;;;;;33.90;44.80;97892.53;5151907;27;20039;-73
2023/09/17 09:22:50;;;;;;;13.15;6.85;;;;;;;34.51;44.87;97903.44;5150550;27;20023;-73
2023/09/17 09:25:18;;;;;;;10.02;6.88;;;;;;;36.28;41.23;97885.22;5150754;27;20034;-72
2023/09/17 09:27:44;;;;;;;12.95;6.57;;;;;;;38.14;36.99;97876.13;5150572;27;20061;-73
2023/09/17 09:30:11;;;;;;;11.63;6.22;;;;;;;37.36;38.48;97882.06;5150644;27;20054;-72
2023/09/17 09:32:37;;;;;;;10.57;6.40;;;;;;;38.40;37.08;97880.06;5150535;27;20445;-71
2023/09/17 09:35:03;;;;;;;15.02;6.10;;;;;;;38.12;37.09;97872.75;5133017;27;20138;-72
2023/09/17 09:37:29;;;;;;;7.78;5.68;;;;;;;39.23;35.06;97878.56;5149542;27;20038;-72
2023/09/17 09:39:55;;;;;;;8.88;5.93;;;;;;;40.24;34.33;97865.06;5150476;27;20023;-73
2023/09/17 09:42:22;;;;;;;13.68;9.68;;;;;;;38.01;36.04;97870.09;5150678;27;20048;-73
2023/09/17 09:44:50;;;;;;;7.40;5.55;;;;;;;36.89;37.41;97862.91;5114876;27;20034;-73
2023/09/17 09:47:16;;;;;;;12.98;5.97;;;;;;;36.78;37.93;97865.78;5151589;27;20062;-72
2023/09/17 09:49:45;;;;;;;8.07;5.80;;;;;;;36.84;37.57;97865.63;5153396;27;20105;-73
2023/09/17 09:52:12;;;;;;;9.10;5.82;;;;;;;38.37;36.69;97867.44;5152989;27;20026;-73
2023/09/17 09:54:39;;;;;;;11.40;6.13;;;;;;;38.15;36.41;97860.22;5154303;27;20015;-72
2023/09/17 09:57:05;;;;;;;11.02;6.60;;;;;;;39.07;36.12;97859.97;5152748;27;20400;-73
2023/09/17 09:59:34;;;;;;;13.23;6.10;;;;;;;39.65;34.56;97858.91;5135584;27;20018;-73
2023/09/17 10:02:10;;;;;;;11.75;5.80;;;;;;;40.59;32.64;97848.28;5135143;27;20018;-73
2023/09/17 10:04:38;;;;;;;10.25;5.50;;;;;;;41.10;32.04;97852.78;5154165;27;20449;-73
2023/09/17 10:07:04;;;;;;;9.52;6.13;;;;;;;40.02;33.25;97838.03;5152575;27;20029;-73
2023/09/17 10:09:30;;;;;;;9.98;6.20;;;;;;;39.93;33.34;97845.31;5152806;27;20026;-73
2023/09/17 10:11:57;;;;;;;13.55;7.25;;;;;;;39.61;34.69;97853.00;5152617;27;20101;-72
2023/09/17 10:14:24;;;;;;;9.82;6.45;;;;;;;39.37;33.76;97851.78;5139095;27;20027;-72
2023/09/17 10:16:50;;;;;;;7.43;5.65;;;;;;;38.92;34.60;97858.72;5131753;27;20096;-72
2023/09/17 10:19:21;;;;;;;8.38;5.45;;;;;;;38.12;34.78;97847.56;5133954;27;20015;-71
2023/09/17 10:21:48;;;;;;;6.88;5.47;;;;;;;36.55;36.86;97844.47;5152560;27;20019;-72
2023/09/17 10:24:15;;;;;;;8.48;5.85;;;;;;;36.08;37.54;97848.63;5152189;27;20099;-72
2023/09/17 10:26:42;;;;;;;11.80;6.05;;;;;;;35.56;39.19;97853.38;5152286;27;20045;-72
2023/09/17 10:29:12;;;;;;;7.43;5.63;;;;;;;36.39;38.53;97853.69;5152175;27;20549;-72
2023/09/17 10:31:39;;;;;;;10.48;5.30;;;;;;;37.21;36.96;97843.63;5145776;27;20019;-72
2023/09/17 10:34:05;;;;;;;9.80;5.88;;;;;;;37.63;36.08;97841.13;5150347;27;20454;-72
2023/09/17 10:36:32;;;;;;;8.70;6.30;;;;;;;38.47;35.01;97844.34;5152297;27;20110;-72
2023/09/17 10:38:59;;;;;;;9.77;7.15;;;;;;;38.70;35.19;97843.97;5152259;27;20435;-72
2023/09/17 10:41:28;;;;;;;10.40;7.15;;;;;;;39.39;36.42;97855.13;5151943;27;20027;-72
2023/09/17 10:43:55;;;;;;;12.15;7.22;;;;;;;38.89;36.32;97844.41;5152335;27;20019;-72
2023/09/17 10:46:21;;;;;;;12.52;7.07;;;;;;;38.40;37.40;97852.94;5151936;27;20101;-72
2023/09/17 10:48:49;;;;;;;11.38;7.25;;;;;;;38.65;37.62;97843.06;5151708;27;20031;-71
2023/09/17 10:51:16;;;;;;;12.60;6.63;;;;;;;40.21;34.94;97837.56;5143106;27;20035;-73
2023/09/17 10:53:42;;;;;;;8.38;6.10;;;;;;;40.00;34.58;97834.69;5151825;27;20373;-72
2023/09/17 10:56:10;;;;;;;9.75;5.95;;;;;;;40.51;34.20;97835.69;5151709;27;20041;-72
2023/09/17 10:58:46;;;;;;;22.52;7.10;;;;;;;39.71;35.41;97838.25;5121763;27;20023;-72
2023/09/17 11:01:28;;;;;;;8.50;6.07;;;;;;;40.67;34.23;97830.88;5132386;27;20490;-73
2023/09/17 11:04:25;;;;;;;6.57;5.95;;;;;;;41.18;32.85;97828.06;5139535;27;20019;-73
2023/09/17 11:06:52;;;;;;;10.32;5.97;;;;;;;41.09;33.39;97834.28;5128686;27;20034;-73
2023/09/17 11:09:18;;;;;;;14.07;6.72;;;;;;;41.23;32.59;97826.06;5151409;27;20035;-73
2023/09/17 11:11:44;;;;;;;13.57;6.00;;;;;;;40.62;33.32;97821.63;5151410;27;20033;-73
2023/09/17 11:14:10;;;;;;;11.25;6.10;;;;;;;39.52;35.38;97829.44;5151378;27;20019;-72
2023/09/17 11:16:36;;;;;;;8.45;6.50;;;;;;;37.68;37.10;97837.56;5150981;27;20122;-73
2023/09/17 11:19:19;;;;;;;10.90;7.00;;;;;;;36.38;39.24;97840.81;5151351;27;20033;-72
2023/09/17 11:22:08;;;;;;;9.02;6.65;;;;;;;34.70;42.58;97845.84;5152501;27;20022;-72
2023/09/17 11:24:33;;;;;;;12.35;7.05;;;;;;;33.36;47.91;97848.16;5133769;27;20031;-73